sensor_id;sensor_type;location;lat;lon;timestamp;P1;durP1;ratioP1;P2;durP2;ratioP2
62584;SDS011;48643;51.670;5.808;2023-04-23T00:01:57;26.02;;;15.25;;
62584;SDS011;48643;51.670;5.808;2023-04-23T00:04:24;27.15;;;15.13;;
62584;SDS011;48643;51.670;5.808;2023-04-23T00:06:52;25.08;;;15.55;;
62584;SDS011;48643;51.670;5.808;2023-04-23T00:09:19;24.58;;;15.13;;
62584;SDS011;48643;51.670;5.808;2023-04-23T00:11:48;25.27;;;15.68;;
62584;SDS011;48643;51.670;5.808;2023-04-23T00:14:15;25.80;;;15.68;;
62584;SDS011;48643;51.670;5.808;2023-04-23T00:16:42;26.05;;;15.68;;
62584;SDS011;48643;51.670;5.808;2023-04-23T00:19:09;26.30;;;16.05;;
62584;SDS011;48643;51.670;5.808;2023-04-23T00:21:36;27.85;;;16.05;;
62584;SDS011;48643;51.670;5.808;2023-04-23T00:24:03;28.10;;;16.33;;
62584;SDS011;48643;51.670;5.808;2023-04-23T00:26:30;26.83;;;15.43;;
62584;SDS011;48643;51.670;5.808;2023-04-23T00:28:57;28.67;;;16.60;;
62584;SDS011;48643;51.670;5.808;2023-04-23T00:31:24;27.35;;;16.60;;
62584;SDS011;48643;51.670;5.808;2023-04-23T00:33:52;28.27;;;16.00;;
62584;SDS011;48643;51.670;5.808;2023-04-23T00:36:19;29.73;;;17.17;;
62584;SDS011;48643;51.670;5.808;2023-04-23T00:38:46;29.95;;;16.98;;
62584;SDS011;48643;51.670;5.808;2023-04-23T00:41:13;30.40;;;16.48;;
62584;SDS011;48643;51.670;5.808;2023-04-23T00:43:40;28.65;;;16.90;;
62584;SDS011;48643;51.670;5.808;2023-04-23T00:46:07;28.00;;;16.80;;
62584;SDS011;48643;51.670;5.808;2023-04-23T00:48:34;27.90;;;17.30;;
62584;SDS011;48643;51.670;5.808;2023-04-23T00:51:05;28.95;;;16.52;;
62584;SDS011;48643;51.670;5.808;2023-04-23T00:53:32;24.10;;;15.68;;
62584;SDS011;48643;51.670;5.808;2023-04-23T00:56:00;28.35;;;16.15;;
62584;SDS011;48643;51.670;5.808;2023-04-23T00:58:27;27.95;;;16.33;;
62584;SDS011;48643;51.670;5.808;2023-04-23T01:00:55;29.50;;;17.00;;
62584;SDS011;48643;51.670;5.808;2023-04-23T01:03:23;27.42;;;16.63;;
62584;SDS011;48643;51.670;5.808;2023-04-23T01:05:52;27.25;;;16.70;;
62584;SDS011;48643;51.670;5.808;2023-04-23T01:08:18;29.15;;;17.25;;
62584;SDS011;48643;51.670;5.808;2023-04-23T01:10:46;29.58;;;17.20;;
62584;SDS011;48643;51.670;5.808;2023-04-23T01:13:14;28.10;;;17.00;;
62584;SDS011;48643;51.670;5.808;2023-04-23T01:15:41;29.75;;;17.05;;
62584;SDS011;48643;51.670;5.808;2023-04-23T01:18:09;30.15;;;17.42;;
62584;SDS011;48643;51.670;5.808;2023-04-23T01:20:37;29.42;;;16.67;;
62584;SDS011;48643;51.670;5.808;2023-04-23T01:23:04;29.27;;;17.25;;
62584;SDS011;48643;51.670;5.808;2023-04-23T01:25:31;29.77;;;17.02;;
62584;SDS011;48643;51.670;5.808;2023-04-23T01:27:58;31.27;;;17.52;;
62584;SDS011;48643;51.670;5.808;2023-04-23T01:30:25;30.17;;;17.13;;
62584;SDS011;48643;51.670;5.808;2023-04-23T01:32:55;29.58;;;17.35;;
62584;SDS011;48643;51.670;5.808;2023-04-23T01:35:23;28.70;;;16.98;;
62584;SDS011;48643;51.670;5.808;2023-04-23T01:37:50;26.45;;;16.55;;
62584;SDS011;48643;51.670;5.808;2023-04-23T01:40:18;30.63;;;17.45;;
62584;SDS011;48643;51.670;5.808;2023-04-23T01:42:49;29.80;;;17.42;;
62584;SDS011;48643;51.670;5.808;2023-04-23T01:45:16;26.10;;;16.25;;
62584;SDS011;48643;51.670;5.808;2023-04-23T01:47:45;27.75;;;16.85;;
62584;SDS011;48643;51.670;5.808;2023-04-23T01:50:15;31.25;;;16.80;;
62584;SDS011;48643;51.670;5.808;2023-04-23T01:52:42;30.58;;;17.23;;
62584;SDS011;48643;51.670;5.808;2023-04-23T01:55:10;27.52;;;16.45;;
62584;SDS011;48643;51.670;5.808;2023-04-23T01:57:37;26.65;;;16.20;;
62584;SDS011;48643;51.670;5.808;2023-04-23T02:00:08;29.63;;;16.85;;
62584;SDS011;48643;51.670;5.808;2023-04-23T02:02:41;26.63;;;16.40;;
62584;SDS011;48643;51.670;5.808;2023-04-23T02:05:09;24.23;;;15.95;;
62584;SDS011;48643;51.670;5.808;2023-04-23T02:07:38;26.17;;;15.15;;
62584;SDS011;48643;51.670;5.808;2023-04-23T02:10:05;26.27;;;16.08;;
62584;SDS011;48643;51.670;5.808;2023-04-23T02:12:33;25.85;;;15.93;;
62584;SDS011;48643;51.670;5.808;2023-04-23T02:15:01;24.83;;;15.52;;
62584;SDS011;48643;51.670;5.808;2023-04-23T02:17:28;28.67;;;16.00;;
62584;SDS011;48643;51.670;5.808;2023-04-23T02:19:55;26.30;;;15.68;;
62584;SDS011;48643;51.670;5.808;2023-04-23T02:22:22;22.42;;;14.82;;
62584;SDS011;48643;51.670;5.808;2023-04-23T02:24:51;24.45;;;15.15;;
62584;SDS011;48643;51.670;5.808;2023-04-23T02:27:19;23.52;;;15.30;;
62584;SDS011;48643;51.670;5.808;2023-04-23T02:29:46;26.00;;;15.48;;
62584;SDS011;48643;51.670;5.808;2023-04-23T02:32:13;23.23;;;14.27;;
62584;SDS011;48643;51.670;5.808;2023-04-23T02:34:40;24.77;;;14.73;;
62584;SDS011;48643;51.670;5.808;2023-04-23T02:37:07;25.65;;;15.25;;
62584;SDS011;48643;51.670;5.808;2023-04-23T02:39:34;26.73;;;15.73;;
62584;SDS011;48643;51.670;5.808;2023-04-23T02:42:02;24.13;;;14.38;;
62584;SDS011;48643;51.670;5.808;2023-04-23T02:44:29;23.17;;;14.40;;
62584;SDS011;48643;51.670;5.808;2023-04-23T02:46:56;22.90;;;14.55;;
62584;SDS011;48643;51.670;5.808;2023-04-23T02:49:23;22.23;;;14.18;;
62584;SDS011;48643;51.670;5.808;2023-04-23T02:51:51;21.60;;;13.73;;
62584;SDS011;48643;51.670;5.808;2023-04-23T02:54:18;24.85;;;14.52;;
62584;SDS011;48643;51.670;5.808;2023-04-23T02:56:45;24.13;;;14.18;;
62584;SDS011;48643;51.670;5.808;2023-04-23T02:59:12;23.00;;;14.45;;
62584;SDS011;48643;51.670;5.808;2023-04-23T03:01:39;22.45;;;14.40;;
62584;SDS011;48643;51.670;5.808;2023-04-23T03:04:08;23.30;;;14.50;;
62584;SDS011;48643;51.670;5.808;2023-04-23T03:06:36;22.13;;;13.68;;
62584;SDS011;48643;51.670;5.808;2023-04-23T03:09:02;24.42;;;14.32;;
62584;SDS011;48643;51.670;5.808;2023-04-23T03:11:30;22.08;;;14.23;;
62584;SDS011;48643;51.670;5.808;2023-04-23T03:13:57;22.63;;;14.32;;
62584;SDS011;48643;51.670;5.808;2023-04-23T03:16:25;21.05;;;13.75;;
62584;SDS011;48643;51.670;5.808;2023-04-23T03:18:53;21.55;;;13.77;;
62584;SDS011;48643;51.670;5.808;2023-04-23T03:21:20;20.85;;;13.45;;
62584;SDS011;48643;51.670;5.808;2023-04-23T03:23:48;22.70;;;13.80;;
62584;SDS011;48643;51.670;5.808;2023-04-23T03:26:15;24.02;;;13.40;;
62584;SDS011;48643;51.670;5.808;2023-04-23T03:28:42;20.08;;;13.27;;
62584;SDS011;48643;51.670;5.808;2023-04-23T03:31:09;20.42;;;13.18;;
62584;SDS011;48643;51.670;5.808;2023-04-23T03:33:36;20.42;;;13.25;;
62584;SDS011;48643;51.670;5.808;2023-04-23T03:36:03;21.77;;;13.57;;
62584;SDS011;48643;51.670;5.808;2023-04-23T03:38:31;22.35;;;12.90;;
62584;SDS011;48643;51.670;5.808;2023-04-23T03:41:00;21.77;;;13.30;;
62584;SDS011;48643;51.670;5.808;2023-04-23T03:43:27;23.60;;;13.55;;
62584;SDS011;48643;51.670;5.808;2023-04-23T03:46:15;20.73;;;12.65;;
62584;SDS011;48643;51.670;5.808;2023-04-23T03:48:41;20.08;;;13.15;;
62584;SDS011;48643;51.670;5.808;2023-04-23T03:51:17;20.88;;;12.77;;
62584;SDS011;48643;51.670;5.808;2023-04-23T03:53:47;21.55;;;12.75;;
62584;SDS011;48643;51.670;5.808;2023-04-23T03:59:25;19.75;;;12.25;;
62584;SDS011;48643;51.670;5.808;2023-04-23T04:01:55;19.77;;;12.82;;
62584;SDS011;48643;51.670;5.808;2023-04-23T04:04:24;18.83;;;12.40;;
62584;SDS011;48643;51.670;5.808;2023-04-23T04:06:53;19.38;;;12.10;;
62584;SDS011;48643;51.670;5.808;2023-04-23T04:09:24;21.20;;;12.63;;
62584;SDS011;48643;51.670;5.808;2023-04-23T04:11:51;19.88;;;12.13;;
62584;SDS011;48643;51.670;5.808;2023-04-23T04:14:22;19.00;;;12.07;;
62584;SDS011;48643;51.670;5.808;2023-04-23T04:16:49;19.52;;;12.05;;
62584;SDS011;48643;51.670;5.808;2023-04-23T04:19:16;18.90;;;12.05;;
62584;SDS011;48643;51.670;5.808;2023-04-23T04:21:42;19.67;;;11.43;;
62584;SDS011;48643;51.670;5.808;2023-04-23T04:24:09;17.83;;;11.98;;
62584;SDS011;48643;51.670;5.808;2023-04-23T04:26:36;16.13;;;11.25;;
62584;SDS011;48643;51.670;5.808;2023-04-23T04:29:03;17.17;;;11.23;;
62584;SDS011;48643;51.670;5.808;2023-04-23T04:31:30;17.27;;;11.52;;
62584;SDS011;48643;51.670;5.808;2023-04-23T04:33:57;17.58;;;12.00;;
62584;SDS011;48643;51.670;5.808;2023-04-23T04:36:24;16.85;;;11.30;;
62584;SDS011;48643;51.670;5.808;2023-04-23T04:38:52;15.60;;;11.23;;
62584;SDS011;48643;51.670;5.808;2023-04-23T04:41:21;16.23;;;11.25;;
62584;SDS011;48643;51.670;5.808;2023-04-23T04:46:17;18.25;;;11.23;;
62584;SDS011;48643;51.670;5.808;2023-04-23T04:48:46;15.38;;;10.27;;
62584;SDS011;48643;51.670;5.808;2023-04-23T04:51:13;16.70;;;10.68;;
62584;SDS011;48643;51.670;5.808;2023-04-23T04:53:40;17.25;;;10.57;;
62584;SDS011;48643;51.670;5.808;2023-04-23T04:56:07;15.93;;;10.30;;
62584;SDS011;48643;51.670;5.808;2023-04-23T04:58:34;16.08;;;10.68;;
62584;SDS011;48643;51.670;5.808;2023-04-23T05:01:01;14.50;;;10.02;;
62584;SDS011;48643;51.670;5.808;2023-04-23T05:03:28;15.85;;;10.52;;
62584;SDS011;48643;51.670;5.808;2023-04-23T05:05:56;14.63;;;10.43;;
62584;SDS011;48643;51.670;5.808;2023-04-23T05:10:52;13.88;;;9.88;;
62584;SDS011;48643;51.670;5.808;2023-04-23T05:13:19;16.13;;;9.65;;
62584;SDS011;48643;51.670;5.808;2023-04-23T05:15:47;13.95;;;9.60;;
62584;SDS011;48643;51.670;5.808;2023-04-23T05:18:14;15.80;;;10.02;;
62584;SDS011;48643;51.670;5.808;2023-04-23T05:20:41;16.48;;;10.23;;
62584;SDS011;48643;51.670;5.808;2023-04-23T05:23:08;15.40;;;9.93;;
62584;SDS011;48643;51.670;5.808;2023-04-23T05:25:35;14.05;;;10.02;;
62584;SDS011;48643;51.670;5.808;2023-04-23T05:28:02;13.40;;;9.80;;
62584;SDS011;48643;51.670;5.808;2023-04-23T05:30:29;14.25;;;9.55;;
62584;SDS011;48643;51.670;5.808;2023-04-23T05:32:56;14.68;;;9.38;;
62584;SDS011;48643;51.670;5.808;2023-04-23T05:35:23;14.75;;;9.95;;
62584;SDS011;48643;51.670;5.808;2023-04-23T05:37:50;14.38;;;9.48;;
62584;SDS011;48643;51.670;5.808;2023-04-23T05:40:17;16.13;;;10.10;;
62584;SDS011;48643;51.670;5.808;2023-04-23T05:42:44;13.57;;;9.35;;
62584;SDS011;48643;51.670;5.808;2023-04-23T05:45:10;14.82;;;9.70;;
62584;SDS011;48643;51.670;5.808;2023-04-23T05:47:37;13.00;;;9.15;;
62584;SDS011;48643;51.670;5.808;2023-04-23T05:50:05;16.38;;;9.88;;
62584;SDS011;48643;51.670;5.808;2023-04-23T05:52:32;13.25;;;9.57;;
62584;SDS011;48643;51.670;5.808;2023-04-23T05:55:02;12.98;;;9.15;;
62584;SDS011;48643;51.670;5.808;2023-04-23T05:57:29;14.95;;;9.65;;
62584;SDS011;48643;51.670;5.808;2023-04-23T05:59:56;14.27;;;9.98;;
62584;SDS011;48643;51.670;5.808;2023-04-23T06:02:23;14.27;;;9.23;;
62584;SDS011;48643;51.670;5.808;2023-04-23T06:04:50;14.57;;;9.75;;
62584;SDS011;48643;51.670;5.808;2023-04-23T06:07:18;12.95;;;9.45;;
62584;SDS011;48643;51.670;5.808;2023-04-23T06:09:45;13.82;;;9.73;;
62584;SDS011;48643;51.670;5.808;2023-04-23T06:12:12;14.02;;;8.98;;
62584;SDS011;48643;51.670;5.808;2023-04-23T06:14:39;13.38;;;9.38;;
62584;SDS011;48643;51.670;5.808;2023-04-23T06:17:06;11.80;;;9.07;;
62584;SDS011;48643;51.670;5.808;2023-04-23T06:19:33;12.60;;;8.68;;
62584;SDS011;48643;51.670;5.808;2023-04-23T06:22:00;13.75;;;9.52;;
62584;SDS011;48643;51.670;5.808;2023-04-23T06:24:27;14.02;;;9.40;;
62584;SDS011;48643;51.670;5.808;2023-04-23T06:26:55;13.02;;;9.18;;
62584;SDS011;48643;51.670;5.808;2023-04-23T06:29:24;15.10;;;9.75;;
62584;SDS011;48643;51.670;5.808;2023-04-23T06:31:55;13.48;;;8.88;;
62584;SDS011;48643;51.670;5.808;2023-04-23T06:34:22;13.45;;;8.52;;
62584;SDS011;48643;51.670;5.808;2023-04-23T06:36:49;12.20;;;8.50;;
62584;SDS011;48643;51.670;5.808;2023-04-23T06:39:17;12.65;;;8.70;;
62584;SDS011;48643;51.670;5.808;2023-04-23T06:41:44;11.30;;;8.35;;
62584;SDS011;48643;51.670;5.808;2023-04-23T06:44:22;13.25;;;8.80;;
62584;SDS011;48643;51.670;5.808;2023-04-23T06:46:52;11.65;;;8.40;;
62584;SDS011;48643;51.670;5.808;2023-04-23T06:49:19;13.52;;;8.73;;
62584;SDS011;48643;51.670;5.808;2023-04-23T06:51:46;10.40;;;8.30;;
62584;SDS011;48643;51.670;5.808;2023-04-23T06:54:14;11.63;;;8.13;;
62584;SDS011;48643;51.670;5.808;2023-04-23T06:56:41;12.13;;;8.13;;
62584;SDS011;48643;51.670;5.808;2023-04-23T06:59:08;14.10;;;8.55;;
62584;SDS011;48643;51.670;5.808;2023-04-23T07:01:43;13.20;;;8.73;;
62584;SDS011;48643;51.670;5.808;2023-04-23T07:04:10;11.35;;;8.07;;
62584;SDS011;48643;51.670;5.808;2023-04-23T07:06:37;17.55;;;8.85;;
62584;SDS011;48643;51.670;5.808;2023-04-23T07:09:04;12.98;;;8.93;;
62584;SDS011;48643;51.670;5.808;2023-04-23T07:11:31;13.75;;;8.18;;
62584;SDS011;48643;51.670;5.808;2023-04-23T07:14:00;11.63;;;7.93;;
62584;SDS011;48643;51.670;5.808;2023-04-23T07:16:27;12.40;;;8.02;;
62584;SDS011;48643;51.670;5.808;2023-04-23T07:18:57;13.73;;;7.90;;
62584;SDS011;48643;51.670;5.808;2023-04-23T07:21:24;12.65;;;7.68;;
62584;SDS011;48643;51.670;5.808;2023-04-23T07:23:56;12.70;;;7.80;;
62584;SDS011;48643;51.670;5.808;2023-04-23T07:26:25;10.98;;;6.95;;
62584;SDS011;48643;51.670;5.808;2023-04-23T07:28:53;10.93;;;7.25;;
62584;SDS011;48643;51.670;5.808;2023-04-23T07:31:20;9.27;;;7.07;;
62584;SDS011;48643;51.670;5.808;2023-04-23T07:33:47;13.32;;;7.30;;
62584;SDS011;48643;51.670;5.808;2023-04-23T07:36:14;17.10;;;7.25;;
62584;SDS011;48643;51.670;5.808;2023-04-23T07:38:41;10.63;;;6.90;;
62584;SDS011;48643;51.670;5.808;2023-04-23T07:41:08;8.90;;;6.60;;
62584;SDS011;48643;51.670;5.808;2023-04-23T07:43:35;10.65;;;6.78;;
62584;SDS011;48643;51.670;5.808;2023-04-23T07:46:03;10.77;;;6.20;;
62584;SDS011;48643;51.670;5.808;2023-04-23T07:48:32;10.23;;;6.43;;
62584;SDS011;48643;51.670;5.808;2023-04-23T07:51:00;9.35;;;5.78;;
62584;SDS011;48643;51.670;5.808;2023-04-23T07:53:28;9.27;;;5.82;;
62584;SDS011;48643;51.670;5.808;2023-04-23T07:55:55;8.95;;;6.07;;
62584;SDS011;48643;51.670;5.808;2023-04-23T07:58:23;9.38;;;5.47;;
62584;SDS011;48643;51.670;5.808;2023-04-23T08:00:50;9.85;;;5.80;;
62584;SDS011;48643;51.670;5.808;2023-04-23T08:03:17;9.73;;;5.90;;
62584;SDS011;48643;51.670;5.808;2023-04-23T08:05:45;9.77;;;5.63;;
62584;SDS011;48643;51.670;5.808;2023-04-23T08:08:12;8.68;;;4.90;;
62584;SDS011;48643;51.670;5.808;2023-04-23T08:10:39;6.53;;;4.70;;
62584;SDS011;48643;51.670;5.808;2023-04-23T08:13:06;9.38;;;5.05;;
62584;SDS011;48643;51.670;5.808;2023-04-23T08:15:33;8.63;;;4.93;;
62584;SDS011;48643;51.670;5.808;2023-04-23T08:18:00;8.75;;;4.63;;
62584;SDS011;48643;51.670;5.808;2023-04-23T08:20:26;8.38;;;4.35;;
62584;SDS011;48643;51.670;5.808;2023-04-23T08:22:53;6.93;;;4.70;;
62584;SDS011;48643;51.670;5.808;2023-04-23T08:25:21;7.68;;;4.30;;
62584;SDS011;48643;51.670;5.808;2023-04-23T08:27:49;20.83;;;9.43;;
62584;SDS011;48643;51.670;5.808;2023-04-23T08:30:16;44.97;;;15.57;;
62584;SDS011;48643;51.670;5.808;2023-04-23T08:32:43;41.35;;;19.27;;
62584;SDS011;48643;51.670;5.808;2023-04-23T08:35:09;41.72;;;18.13;;
62584;SDS011;48643;51.670;5.808;2023-04-23T08:37:36;121.20;;;28.60;;
62584;SDS011;48643;51.670;5.808;2023-04-23T08:40:05;470.95;;;84.60;;
62584;SDS011;48643;51.670;5.808;2023-04-23T08:42:49;440.33;;;88.35;;
62584;SDS011;48643;51.670;5.808;2023-04-23T08:45:22;456.08;;;93.47;;
62584;SDS011;48643;51.670;5.808;2023-04-23T08:47:50;452.65;;;88.82;;
62584;SDS011;48643;51.670;5.808;2023-04-23T08:50:17;351.55;;;72.95;;
62584;SDS011;48643;51.670;5.808;2023-04-23T08:52:46;404.30;;;81.23;;
62584;SDS011;48643;51.670;5.808;2023-04-23T08:55:16;426.48;;;87.55;;
62584;SDS011;48643;51.670;5.808;2023-04-23T08:57:44;297.02;;;59.08;;
62584;SDS011;48643;51.670;5.808;2023-04-23T09:00:12;289.90;;;54.33;;
62584;SDS011;48643;51.670;5.808;2023-04-23T09:02:41;183.52;;;36.80;;
62584;SDS011;48643;51.670;5.808;2023-04-23T09:05:10;157.63;;;34.50;;
62584;SDS011;48643;51.670;5.808;2023-04-23T09:07:37;166.13;;;37.22;;
62584;SDS011;48643;51.670;5.808;2023-04-23T09:10:05;128.43;;;27.75;;
62584;SDS011;48643;51.670;5.808;2023-04-23T09:12:36;110.47;;;25.13;;
62584;SDS011;48643;51.670;5.808;2023-04-23T09:15:04;118.75;;;28.02;;
62584;SDS011;48643;51.670;5.808;2023-04-23T09:17:40;112.95;;;24.33;;
62584;SDS011;48643;51.670;5.808;2023-04-23T09:20:09;106.93;;;23.60;;
62584;SDS011;48643;51.670;5.808;2023-04-23T09:22:41;94.35;;;18.25;;
62584;SDS011;48643;51.670;5.808;2023-04-23T09:25:13;131.90;;;26.00;;
62584;SDS011;48643;51.670;5.808;2023-04-23T09:27:42;77.85;;;16.88;;
62584;SDS011;48643;51.670;5.808;2023-04-23T09:30:10;44.03;;;12.18;;
62584;SDS011;48643;51.670;5.808;2023-04-23T09:32:38;39.30;;;9.10;;
62584;SDS011;48643;51.670;5.808;2023-04-23T09:35:12;32.40;;;7.70;;
62584;SDS011;48643;51.670;5.808;2023-04-23T09:37:40;34.38;;;11.35;;
62584;SDS011;48643;51.670;5.808;2023-04-23T09:40:09;43.90;;;14.88;;
62584;SDS011;48643;51.670;5.808;2023-04-23T09:42:39;37.65;;;10.25;;
62584;SDS011;48643;51.670;5.808;2023-04-23T09:45:06;24.08;;;5.50;;
62584;SDS011;48643;51.670;5.808;2023-04-23T09:47:37;18.10;;;4.63;;
62584;SDS011;48643;51.670;5.808;2023-04-23T09:50:05;20.58;;;4.45;;
62584;SDS011;48643;51.670;5.808;2023-04-23T09:52:38;17.25;;;3.97;;
62584;SDS011;48643;51.670;5.808;2023-04-23T09:55:06;18.30;;;4.57;;
62584;SDS011;48643;51.670;5.808;2023-04-23T09:57:37;15.65;;;3.90;;
62584;SDS011;48643;51.670;5.808;2023-04-23T10:00:16;11.73;;;3.40;;
62584;SDS011;48643;51.670;5.808;2023-04-23T10:02:45;14.18;;;3.00;;
62584;SDS011;48643;51.670;5.808;2023-04-23T10:07:52;14.97;;;3.30;;
62584;SDS011;48643;51.670;5.808;2023-04-23T10:10:22;14.27;;;3.45;;
62584;SDS011;48643;51.670;5.808;2023-04-23T10:12:51;11.38;;;3.00;;
62584;SDS011;48643;51.670;5.808;2023-04-23T10:15:22;13.85;;;2.85;;
62584;SDS011;48643;51.670;5.808;2023-04-23T10:17:52;16.08;;;3.03;;
62584;SDS011;48643;51.670;5.808;2023-04-23T10:20:20;12.25;;;3.20;;
62584;SDS011;48643;51.670;5.808;2023-04-23T10:22:48;11.65;;;3.15;;
62584;SDS011;48643;51.670;5.808;2023-04-23T10:25:15;14.00;;;3.20;;
62584;SDS011;48643;51.670;5.808;2023-04-23T10:27:47;10.00;;;2.80;;
62584;SDS011;48643;51.670;5.808;2023-04-23T10:30:20;11.75;;;2.88;;
62584;SDS011;48643;51.670;5.808;2023-04-23T10:32:48;12.57;;;4.90;;
62584;SDS011;48643;51.670;5.808;2023-04-23T10:35:16;11.40;;;2.85;;
62584;SDS011;48643;51.670;5.808;2023-04-23T10:37:43;11.10;;;2.70;;
62584;SDS011;48643;51.670;5.808;2023-04-23T10:40:14;9.48;;;2.60;;
62584;SDS011;48643;51.670;5.808;2023-04-23T10:42:44;8.43;;;2.50;;
62584;SDS011;48643;51.670;5.808;2023-04-23T10:47:51;8.98;;;2.60;;
62584;SDS011;48643;51.670;5.808;2023-04-23T10:50:25;9.65;;;2.80;;
62584;SDS011;48643;51.670;5.808;2023-04-23T10:52:53;8.73;;;3.20;;
62584;SDS011;48643;51.670;5.808;2023-04-23T10:55:24;8.90;;;3.28;;
62584;SDS011;48643;51.670;5.808;2023-04-23T11:03:31;9.48;;;3.80;;
62584;SDS011;48643;51.670;5.808;2023-04-23T11:06:05;7.20;;;3.08;;
62584;SDS011;48643;51.670;5.808;2023-04-23T11:08:35;6.45;;;2.97;;
62584;SDS011;48643;51.670;5.808;2023-04-23T11:11:06;7.20;;;3.08;;
62584;SDS011;48643;51.670;5.808;2023-04-23T11:13:33;11.20;;;3.38;;
62584;SDS011;48643;51.670;5.808;2023-04-23T11:16:13;10.30;;;3.20;;
62584;SDS011;48643;51.670;5.808;2023-04-23T11:18:56;8.32;;;3.00;;
62584;SDS011;48643;51.670;5.808;2023-04-23T11:24:31;19.38;;;3.47;;
62584;SDS011;48643;51.670;5.808;2023-04-23T11:27:04;11.30;;;2.45;;
62584;SDS011;48643;51.670;5.808;2023-04-23T11:31:59;8.65;;;2.20;;
62584;SDS011;48643;51.670;5.808;2023-04-23T11:34:31;13.52;;;2.50;;
62584;SDS011;48643;51.670;5.808;2023-04-23T11:36:58;11.15;;;2.20;;
62584;SDS011;48643;51.670;5.808;2023-04-23T11:39:26;10.18;;;2.30;;
62584;SDS011;48643;51.670;5.808;2023-04-23T11:41:53;10.63;;;2.50;;
62584;SDS011;48643;51.670;5.808;2023-04-23T11:44:20;10.35;;;2.65;;
62584;SDS011;48643;51.670;5.808;2023-04-23T11:46:48;19.33;;;2.75;;
62584;SDS011;48643;51.670;5.808;2023-04-23T11:49:16;11.27;;;2.50;;
62584;SDS011;48643;51.670;5.808;2023-04-23T11:51:44;11.63;;;2.50;;
62584;SDS011;48643;51.670;5.808;2023-04-23T11:54:11;8.88;;;2.63;;
62584;SDS011;48643;51.670;5.808;2023-04-23T11:56:39;11.98;;;2.47;;
62584;SDS011;48643;51.670;5.808;2023-04-23T11:59:07;11.38;;;2.25;;
62584;SDS011;48643;51.670;5.808;2023-04-23T12:01:44;17.98;;;2.90;;
62584;SDS011;48643;51.670;5.808;2023-04-23T12:04:15;11.77;;;2.40;;
62584;SDS011;48643;51.670;5.808;2023-04-23T12:06:44;8.27;;;2.28;;
62584;SDS011;48643;51.670;5.808;2023-04-23T12:09:13;6.22;;;2.40;;
62584;SDS011;48643;51.670;5.808;2023-04-23T12:11:43;6.72;;;2.38;;
62584;SDS011;48643;51.670;5.808;2023-04-23T12:14:11;6.60;;;2.30;;
62584;SDS011;48643;51.670;5.808;2023-04-23T12:16:40;5.72;;;2.33;;
62584;SDS011;48643;51.670;5.808;2023-04-23T12:19:18;9.02;;;2.08;;
62584;SDS011;48643;51.670;5.808;2023-04-23T12:24:24;8.20;;;2.15;;
62584;SDS011;48643;51.670;5.808;2023-04-23T12:26:53;10.50;;;2.47;;
62584;SDS011;48643;51.670;5.808;2023-04-23T12:29:27;7.82;;;2.30;;
62584;SDS011;48643;51.670;5.808;2023-04-23T12:31:59;8.05;;;1.95;;
62584;SDS011;48643;51.670;5.808;2023-04-23T12:34:26;9.40;;;2.10;;
62584;SDS011;48643;51.670;5.808;2023-04-23T12:36:53;12.57;;;2.45;;
62584;SDS011;48643;51.670;5.808;2023-04-23T12:41:58;10.43;;;2.10;;
62584;SDS011;48643;51.670;5.808;2023-04-23T12:44:30;9.23;;;2.03;;
62584;SDS011;48643;51.670;5.808;2023-04-23T12:47:06;14.43;;;2.80;;
62584;SDS011;48643;51.670;5.808;2023-04-23T12:49:35;9.63;;;2.38;;
62584;SDS011;48643;51.670;5.808;2023-04-23T12:52:03;11.20;;;2.38;;
62584;SDS011;48643;51.670;5.808;2023-04-23T12:54:32;8.85;;;2.38;;
62584;SDS011;48643;51.670;5.808;2023-04-23T12:57:02;8.43;;;2.30;;
62584;SDS011;48643;51.670;5.808;2023-04-23T12:59:33;6.90;;;2.38;;
62584;SDS011;48643;51.670;5.808;2023-04-23T13:02:00;6.95;;;1.92;;
62584;SDS011;48643;51.670;5.808;2023-04-23T13:04:32;11.65;;;2.10;;
62584;SDS011;48643;51.670;5.808;2023-04-23T13:07:00;6.07;;;2.28;;
62584;SDS011;48643;51.670;5.808;2023-04-23T13:09:27;14.73;;;2.22;;
62584;SDS011;48643;51.670;5.808;2023-04-23T13:11:54;6.22;;;2.20;;
62584;SDS011;48643;51.670;5.808;2023-04-23T13:14:21;7.80;;;2.03;;
62584;SDS011;48643;51.670;5.808;2023-04-23T13:16:48;8.75;;;2.00;;
62584;SDS011;48643;51.670;5.808;2023-04-23T13:19:15;9.93;;;2.25;;
62584;SDS011;48643;51.670;5.808;2023-04-23T13:21:43;6.22;;;1.85;;
62584;SDS011;48643;51.670;5.808;2023-04-23T13:24:10;10.68;;;1.90;;
62584;SDS011;48643;51.670;5.808;2023-04-23T13:26:37;8.73;;;2.10;;
62584;SDS011;48643;51.670;5.808;2023-04-23T13:29:04;10.32;;;2.28;;
62584;SDS011;48643;51.670;5.808;2023-04-23T13:31:31;9.02;;;2.08;;
62584;SDS011;48643;51.670;5.808;2023-04-23T13:33:58;6.85;;;2.00;;
62584;SDS011;48643;51.670;5.808;2023-04-23T13:36:28;11.20;;;2.15;;
62584;SDS011;48643;51.670;5.808;2023-04-23T13:38:55;6.30;;;2.15;;
62584;SDS011;48643;51.670;5.808;2023-04-23T13:41:21;6.28;;;1.98;;
62584;SDS011;48643;51.670;5.808;2023-04-23T13:43:48;7.63;;;2.00;;
62584;SDS011;48643;51.670;5.808;2023-04-23T13:46:15;5.80;;;1.98;;
62584;SDS011;48643;51.670;5.808;2023-04-23T13:48:42;5.85;;;2.00;;
62584;SDS011;48643;51.670;5.808;2023-04-23T13:51:10;6.55;;;2.55;;
62584;SDS011;48643;51.670;5.808;2023-04-23T13:53:57;6.45;;;2.28;;
62584;SDS011;48643;51.670;5.808;2023-04-23T13:56:25;5.75;;;2.10;;
62584;SDS011;48643;51.670;5.808;2023-04-23T13:58:52;6.63;;;2.10;;
62584;SDS011;48643;51.670;5.808;2023-04-23T14:01:33;7.97;;;2.00;;
62584;SDS011;48643;51.670;5.808;2023-04-23T14:04:00;7.47;;;2.22;;
62584;SDS011;48643;51.670;5.808;2023-04-23T14:06:29;9.55;;;2.10;;
62584;SDS011;48643;51.670;5.808;2023-04-23T14:08:56;11.55;;;2.20;;
62584;SDS011;48643;51.670;5.808;2023-04-23T14:11:23;8.35;;;1.88;;
62584;SDS011;48643;51.670;5.808;2023-04-23T14:13:50;5.45;;;1.90;;
62584;SDS011;48643;51.670;5.808;2023-04-23T14:16:17;10.13;;;1.90;;
62584;SDS011;48643;51.670;5.808;2023-04-23T14:18:44;9.32;;;2.13;;
62584;SDS011;48643;51.670;5.808;2023-04-23T14:21:11;14.57;;;2.20;;
62584;SDS011;48643;51.670;5.808;2023-04-23T14:23:55;4.78;;;1.90;;
62584;SDS011;48643;51.670;5.808;2023-04-23T14:29:22;7.88;;;1.90;;
62584;SDS011;48643;51.670;5.808;2023-04-23T14:32:09;6.28;;;1.77;;
62584;SDS011;48643;51.670;5.808;2023-04-23T14:34:37;9.98;;;1.95;;
62584;SDS011;48643;51.670;5.808;2023-04-23T14:37:05;7.72;;;2.00;;
62584;SDS011;48643;51.670;5.808;2023-04-23T14:39:33;10.57;;;2.10;;
62584;SDS011;48643;51.670;5.808;2023-04-23T14:42:00;5.70;;;1.60;;
62584;SDS011;48643;51.670;5.808;2023-04-23T14:44:27;6.25;;;2.10;;
62584;SDS011;48643;51.670;5.808;2023-04-23T14:46:54;5.63;;;1.60;;
62584;SDS011;48643;51.670;5.808;2023-04-23T14:49:21;4.22;;;1.60;;
62584;SDS011;48643;51.670;5.808;2023-04-23T14:51:49;3.95;;;1.73;;
62584;SDS011;48643;51.670;5.808;2023-04-23T14:54:19;5.22;;;1.50;;
62584;SDS011;48643;51.670;5.808;2023-04-23T14:56:47;4.88;;;1.90;;
62584;SDS011;48643;51.670;5.808;2023-04-23T14:59:14;5.07;;;1.80;;
62584;SDS011;48643;51.670;5.808;2023-04-23T15:01:41;4.38;;;1.58;;
62584;SDS011;48643;51.670;5.808;2023-04-23T15:04:11;8.82;;;1.90;;
62584;SDS011;48643;51.670;5.808;2023-04-23T15:06:38;8.43;;;1.90;;
62584;SDS011;48643;51.670;5.808;2023-04-23T15:09:05;4.72;;;1.77;;
62584;SDS011;48643;51.670;5.808;2023-04-23T15:11:32;10.32;;;1.80;;